Time;durP1;ratioP1;P1;durP2;ratioP2;P2;SDS_P1;SDS_P2;PMS_P1;PMS_P2;Temp;Humidity;BMP_temperature;BMP_pressure;BME280_temperature;BME280_humidity;BME280_pressure;Samples;Min_cycle;Max_cycle;Signal;HPM_P1;HPM_P2
2022/06/12 00:00:25;;;;;;;5.60;2.60;;;18.10;53.60;;;;;;6220633;23;20636;-89
2022/06/12 00:02:51;;;;;;;6.03;2.40;;;18.00;53.90;;;;;;6221263;23;20376;-89
2022/06/12 00:05:31;;;;;;;6.53;2.67;;;18.00;54.40;;;;;;6248107;23;20160;-89
2022/06/12 00:07:56;;;;;;;4.65;2.58;;;18.00;54.20;;;;;;6220865;23;20169;-88
2022/06/12 00:10:23;;;;;;;7.93;2.67;;;18.00;54.60;;;;;;6222805;23;20173;-89
2022/06/12 00:12:49;;;;;;;6.00;2.60;;;17.90;55.60;;;;;;6247648;23;20168;-88
2022/06/12 00:15:19;;;;;;;6.03;2.05;;;17.90;55.50;;;;;;6220707;23;20164;-88
2022/06/12 00:17:45;;;;;;;6.75;2.15;;;17.90;56.00;;;;;;6247941;23;20478;-89
2022/06/12 00:20:15;;;;;;;5.22;2.30;;;17.80;56.30;;;;;;6220377;23;20192;-88
2022/06/12 00:22:41;;;;;;;5.15;2.20;;;17.90;56.00;;;;;;6247321;23;20521;-88
2022/06/12 00:25:09;;;;;;;6.97;2.55;;;17.90;56.10;;;;;;6247924;23;20144;-89
2022/06/12 00:27:36;;;;;;;8.75;2.80;;;17.80;56.10;;;;;;6196244;23;20645;-88
2022/06/12 00:30:03;;;;;;;3.70;2.25;;;17.80;56.60;;;;;;6221446;23;20176;-89
2022/06/12 00:32:30;;;;;;;5.03;2.08;;;17.80;56.50;;;;;;6220270;23;20773;-88
2022/06/12 00:34:56;;;;;;;8.30;2.25;;;17.80;56.70;;;;;;6220642;23;20170;-88
2022/06/12 00:37:25;;;;;;;11.63;2.55;;;17.80;56.40;;;;;;6221234;23;20156;-88
2022/06/12 00:39:53;;;;;;;5.80;1.90;;;17.80;56.30;;;;;;6220385;23;20189;-89
2022/06/12 00:42:36;;;;;;;6.60;2.60;;;17.70;56.50;;;;;;6221106;23;20152;-89
2022/06/12 00:45:37;;;;;;;8.13;3.17;;;17.70;56.60;;;;;;6221659;23;20642;-89
2022/06/12 00:48:12;;;;;;;5.18;2.30;;;17.70;57.10;;;;;;6246955;23;20169;-89
2022/06/12 00:50:45;;;;;;;6.82;2.20;;;17.70;57.30;;;;;;6219966;23;20176;-88
2022/06/12 00:53:20;;;;;;;9.20;2.70;;;17.60;57.40;;;;;;6247087;23;20156;-89
2022/06/12 00:56:02;;;;;;;8.32;2.58;;;17.60;57.40;;;;;;6220382;23;20152;-89
2022/06/12 00:58:32;;;;;;;5.90;2.83;;;17.50;57.40;;;;;;6219304;23;20176;-89
2022/06/12 01:01:01;;;;;;;5.78;2.45;;;17.50;57.70;;;;;;6220045;23;20168;-89
2022/06/12 01:03:26;;;;;;;7.38;2.38;;;17.50;57.90;;;;;;6247570;23;20217;-89
2022/06/12 01:08:39;;;;;;;10.43;2.60;;;17.50;57.90;;;;;;6248296;23;20702;-88
2022/06/12 01:11:09;;;;;;;7.50;2.65;;;17.50;58.10;;;;;;6230727;23;20188;-89
2022/06/12 01:13:39;;;;;;;4.82;2.35;;;17.50;57.80;;;;;;6232148;23;20179;-89
2022/06/12 01:16:11;;;;;;;4.03;2.20;;;17.40;57.80;;;;;;6230868;23;20148;-88
2022/06/12 01:18:44;;;;;;;5.68;2.90;;;17.40;57.80;;;;;;6248647;23;20188;-88
2022/06/12 01:21:34;;;;;;;13.13;2.30;;;17.30;58.20;;;;;;6220808;23;20184;-89
2022/06/12 01:24:00;;;;;;;3.65;2.15;;;17.30;58.50;;;;;;6220133;23;20147;-89
2022/06/12 01:26:44;;;;;;;14.53;2.80;;;17.30;58.70;;;;;;6223687;23;20187;-89
2022/06/12 01:29:48;;;;;;;17.60;2.78;;;17.30;58.50;;;;;;6224955;22;20152;-87
2022/06/12 01:32:22;;;;;;;8.30;2.75;;;17.20;58.40;;;;;;6224606;23;20145;-88
2022/06/12 01:34:57;;;;;;;7.03;2.53;;;17.20;58.90;;;;;;6224134;23;20149;-89
2022/06/12 01:37:47;;;;;;;7.13;2.70;;;17.10;59.20;;;;;;6223787;23;20152;-88
2022/06/12 01:40:35;;;;;;;10.77;2.97;;;17.10;59.30;;;;;;6220837;23;20249;-89
2022/06/12 01:43:21;;;;;;;9.90;3.40;;;17.10;59.30;;;;;;6220898;23;20183;-89
2022/06/12 01:45:56;;;;;;;7.65;2.60;;;17.00;59.30;;;;;;6222692;23;20141;-88
2022/06/12 01:48:44;;;;;;;7.75;4.40;;;17.10;59.70;;;;;;6230799;23;20198;-88
2022/06/12 01:51:19;;;;;;;9.43;2.22;;;17.10;59.50;;;;;;6232372;23;20183;-88
2022/06/12 01:54:03;;;;;;;4.68;2.42;;;17.10;59.50;;;;;;6223416;23;20207;-88
2022/06/12 01:56:32;;;;;;;3.60;2.05;;;17.10;59.40;;;;;;6248525;23;20603;-88
2022/06/12 01:59:05;;;;;;;6.20;2.20;;;17.10;59.70;;;;;;6221456;23;20183;-88
2022/06/12 02:01:51;;;;;;;7.43;3.03;;;17.00;60.00;;;;;;6221993;23;20215;-88
2022/06/12 02:04:20;;;;;;;4.45;2.70;;;17.00;59.80;;;;;;6249221;23;20140;-88
2022/06/12 02:06:58;;;;;;;5.82;2.70;;;16.90;59.90;;;;;;6221605;23;20159;-88
2022/06/12 02:10:01;;;;;;;8.32;3.22;;;16.90;60.40;;;;;;6221603;22;20520;-88
2022/06/12 02:15:23;;;;;;;6.57;2.53;;;16.80;60.20;;;;;;6251245;23;20148;-88
2022/06/12 02:18:03;;;;;;;5.15;1.92;;;16.80;60.60;;;;;;6225258;23;20235;-88
2022/06/12 02:20:37;;;;;;;9.77;2.75;;;16.80;60.40;;;;;;6223890;23;20645;-89
2022/06/12 02:23:10;;;;;;;5.57;2.38;;;16.90;60.50;;;;;;6222382;23;20141;-88
2022/06/12 02:25:40;;;;;;;11.95;2.53;;;16.90;60.00;;;;;;6222493;23;20146;-88
2022/06/12 02:28:14;;;;;;;4.65;2.03;;;16.80;60.00;;;;;;6221736;23;20189;-88
2022/06/12 02:30:44;;;;;;;5.60;2.47;;;16.80;60.00;;;;;;6249159;22;20251;-88
2022/06/12 02:33:26;;;;;;;7.97;2.70;;;16.80;59.80;;;;;;6249212;23;20151;-88
2022/06/12 02:36:19;;;;;;;4.60;2.30;;;16.80;59.90;;;;;;6221745;23;20136;-88
2022/06/12 02:38:57;;;;;;;3.85;2.47;;;16.70;59.50;;;;;;6249000;23;20277;-88
2022/06/12 02:41:32;;;;;;;3.80;2.20;;;16.70;59.90;;;;;;6249147;22;20192;-88
2022/06/12 02:44:07;;;;;;;9.15;2.75;;;16.60;60.30;;;;;;6221943;23;20144;-89
2022/06/12 02:46:50;;;;;;;9.07;3.35;;;16.50;61.40;;;;;;6248650;23;20178;-88
2022/06/12 02:49:18;;;;;;;5.10;3.30;;;16.50;61.70;;;;;;6217599;22;20219;-89
2022/06/12 02:52:34;;;;;;;8.80;4.00;;;16.50;62.10;;;;;;6221309;23;20164;-89
2022/06/12 02:55:41;;;;;;;8.15;2.80;;;16.40;61.90;;;;;;6129699;23;20166;-89
2022/06/12 02:58:12;;;;;;;4.70;2.15;;;16.40;62.10;;;;;;6135805;23;20201;-89
2022/06/12 03:00:52;;;;;;;6.28;2.60;;;16.40;62.00;;;;;;6221580;23;20259;-89
2022/06/12 03:03:38;;;;;;;5.75;2.75;;;16.40;61.30;;;;;;6220640;23;20136;-88
2022/06/12 03:06:03;;;;;;;6.35;2.38;;;16.40;61.30;;;;;;6220860;23;20164;-88
2022/06/12 03:08:42;;;;;;;4.70;2.17;;;16.40;61.60;;;;;;6221548;23;20484;-89
2022/06/12 03:11:10;;;;;;;9.88;2.95;;;16.40;61.50;;;;;;6222394;23;20180;-88
2022/06/12 03:13:36;;;;;;;3.95;2.50;;;16.30;61.30;;;;;;6221858;23;20187;-88
2022/06/12 03:16:20;;;;;;;10.77;2.65;;;16.30;61.70;;;;;;6221801;23;20160;-88
2022/06/12 03:18:56;;;;;;;10.55;2.55;;;16.30;62.90;;;;;;6197992;23;20172;-88
2022/06/12 03:21:34;;;;;;;7.00;2.90;;;16.30;63.50;;;;;;6221010;23;20172;-88
2022/06/12 03:24:31;;;;;;;4.57;2.80;;;16.20;63.10;;;;;;6221887;23;20646;-88
2022/06/12 03:27:28;;;;;;;7.03;2.80;;;16.20;62.90;;;;;;6221604;23;20218;-88
2022/06/12 03:30:06;;;;;;;6.20;2.78;;;16.20;63.60;;;;;;6222049;23;20200;-88
2022/06/12 03:32:49;;;;;;;9.07;2.60;;;16.10;64.10;;;;;;6222095;23;20198;-88
2022/06/12 03:35:27;;;;;;;8.15;3.00;;;16.20;64.20;;;;;;6249680;23;20141;-89
2022/06/12 03:38:08;;;;;;;6.43;2.60;;;16.20;64.20;;;;;;6222016;23;20152;-88
2022/06/12 03:40:42;;;;;;;5.13;2.95;;;16.20;64.20;;;;;;6221494;23;20214;-89
2022/06/12 03:43:11;;;;;;;5.13;3.15;;;16.20;64.40;;;;;;6223335;23;20144;-88
2022/06/12 03:45:50;;;;;;;4.35;2.28;;;16.20;64.70;;;;;;6225854;23;20240;-89
2022/06/12 03:48:20;;;;;;;9.18;3.05;;;16.20;64.30;;;;;;6224768;23;20160;-88
2022/06/12 03:51:15;;;;;;;9.48;3.72;;;16.20;64.20;;;;;;6225510;23;20181;-88
2022/06/12 03:53:48;;;;;;;10.77;3.25;;;16.20;64.60;;;;;;6225111;23;20153;-88
2022/06/12 03:59:25;;;;;;;9.77;3.42;;;16.20;65.10;;;;;;6248420;23;20215;-88
2022/06/12 04:01:51;;;;;;;7.65;2.97;;;16.20;65.40;;;;;;6248092;23;20602;-88
2022/06/12 04:04:30;;;;;;;9.77;3.00;;;16.20;65.30;;;;;;6249916;23;20220;-89
2022/06/12 04:06:59;;;;;;;6.30;3.15;;;16.20;65.40;;;;;;6220247;23;20205;-88
2022/06/12 04:09:29;;;;;;;9.82;3.53;;;16.30;65.50;;;;;;6249045;22;20231;-88
2022/06/12 04:11:59;;;;;;;14.45;4.03;;;16.30;65.40;;;;;;6221717;23;20164;-88
2022/06/12 04:14:30;;;;;;;10.18;2.92;;;16.40;65.30;;;;;;6222651;23;20163;-88
2022/06/12 04:16:59;;;;;;;6.80;3.17;;;16.40;65.10;;;;;;6247580;23;20148;-89
2022/06/12 04:19:27;;;;;;;9.23;3.30;;;16.40;65.40;;;;;;6220135;22;20198;-89
2022/06/12 04:22:04;;;;;;;8.15;4.28;;;16.40;65.20;;;;;;6247703;23;20294;-88
2022/06/12 04:24:58;;;;;;;9.98;3.75;;;16.40;65.50;;;;;;6220508;23;20144;-89
2022/06/12 04:27:40;;;;;;;5.53;3.05;;;16.40;65.20;;;;;;6220794;23;20144;-88
2022/06/12 04:30:22;;;;;;;7.78;3.65;;;16.50;65.40;;;;;;6247372;22;20623;-89
2022/06/12 04:32:48;;;;;;;9.43;3.38;;;16.50;65.40;;;;;;6220235;23;20198;-89
2022/06/12 04:35:15;;;;;;;10.55;3.40;;;16.50;65.40;;;;;;6220211;23;20167;-89
2022/06/12 04:37:42;;;;;;;9.43;3.20;;;16.50;65.20;;;;;;6219513;23;20183;-89
2022/06/12 04:40:21;;;;;;;7.78;3.20;;;16.60;65.30;;;;;;6220366;23;20281;-89
2022/06/12 04:42:47;;;;;;;13.02;4.03;;;16.60;65.40;;;;;;6221128;23;20518;-88
2022/06/12 04:45:12;;;;;;;10.00;3.27;;;16.60;65.00;;;;;;6221395;23;20184;-88
2022/06/12 04:47:39;;;;;;;11.73;3.90;;;16.60;65.10;;;;;;6221497;23;20537;-89
2022/06/12 04:50:05;;;;;;;6.43;2.95;;;16.70;65.30;;;;;;6221444;23;20184;-88
2022/06/12 04:52:31;;;;;;;20.58;4.18;;;16.70;65.30;;;;;;6248590;23;20176;-88
2022/06/12 04:54:57;;;;;;;10.60;4.00;;;16.70;65.00;;;;;;6221625;23;20163;-88
2022/06/12 04:57:24;;;;;;;7.75;3.50;;;16.80;65.10;;;;;;6249125;23;20168;-88
2022/06/12 04:59:50;;;;;;;11.50;3.50;;;16.80;65.10;;;;;;6238919;23;20193;-89
2022/06/12 05:02:16;;;;;;;8.90;3.45;;;16.80;65.10;;;;;;6236509;23;20172;-88
2022/06/12 05:04:42;;;;;;;8.63;3.80;;;16.90;65.40;;;;;;6221692;23;20206;-88
2022/06/12 05:07:10;;;;;;;9.77;3.80;;;16.90;65.40;;;;;;6220555;23;20156;-88
2022/06/12 05:09:39;;;;;;;11.13;3.92;;;17.00;65.30;;;;;;6220879;23;20411;-89
2022/06/12 05:12:06;;;;;;;7.13;4.15;;;17.00;65.40;;;;;;6221024;23;20639;-88
2022/06/12 05:14:32;;;;;;;7.72;3.97;;;17.10;65.40;;;;;;6220588;23;20153;-88
2022/06/12 05:17:00;;;;;;;9.30;4.37;;;17.30;65.20;;;;;;6220997;23;20157;-89
2022/06/12 05:19:31;;;;;;;13.93;4.22;;;17.90;64.10;;;;;;6220233;22;20184;-88
2022/06/12 05:21:58;;;;;;;10.50;3.03;;;18.50;62.00;;;;;;6221124;23;20143;-88
2022/06/12 05:24:24;;;;;;;9.00;3.65;;;19.50;59.90;;;;;;6221070;23;20243;-88
2022/06/12 05:26:50;;;;;;;8.30;3.80;;;20.20;57.00;;;;;;6220752;23;20160;-89
2022/06/12 05:29:33;;;;;;;9.33;3.80;;;20.80;55.00;;;;;;6247495;22;20379;-88
2022/06/12 05:32:00;;;;;;;11.50;4.17;;;21.00;53.40;;;;;;6219689;23;20372;-89
2022/06/12 05:34:27;;;;;;;15.70;4.00;;;21.10;53.50;;;;;;6219470;23;20449;-89
2022/06/12 05:36:53;;;;;;;9.03;3.60;;;20.60;54.20;;;;;;6250826;23;20371;-89
2022/06/12 05:39:20;;;;;;;9.67;3.80;;;20.10;55.70;;;;;;6197981;22;20430;-88
2022/06/12 05:41:46;;;;;;;10.70;3.33;;;19.80;57.20;;;;;;6220502;23;20407;-88
2022/06/12 05:44:13;;;;;;;17.30;4.60;;;19.80;58.30;;;;;;6248143;23;20383;-88
2022/06/12 05:46:40;;;;;;;12.90;4.37;;;19.40;58.90;;;;;;6247967;23;20372;-89
2022/06/12 05:49:06;;;;;;;18.63;4.97;;;19.20;59.80;;;;;;6221756;23;20439;-89
2022/06/12 05:51:32;;;;;;;19.50;10.83;;;19.10;60.60;;;;;;6257972;22;20399;-89
2022/06/12 05:53:58;;;;;;;9.90;4.37;;;19.10;61.20;;;;;;6235304;23;20384;-87
2022/06/12 05:56:26;;;;;;;12.77;5.23;;;19.10;61.60;;;;;;6234721;23;20660;-88
2022/06/12 05:58:52;;;;;;;10.35;4.45;;;19.10;61.60;;;;;;6221356;23;20838;-88
2022/06/12 06:01:19;;;;;;;17.53;5.43;;;18.90;62.30;;;;;;6221559;23;20173;-88
2022/06/12 06:03:47;;;;;;;11.83;4.00;;;18.90;63.10;;;;;;6222771;23;20423;-88
2022/06/12 06:06:18;;;;;;;10.50;4.70;;;19.10;62.60;;;;;;6222641;23;20462;-88
2022/06/12 06:08:44;;;;;;;11.43;4.83;;;19.30;62.50;;;;;;6223040;23;20394;-88
2022/06/12 06:11:10;;;;;;;13.07;4.80;;;19.40;62.80;;;;;;6223486;23;20407;-88
2022/06/12 06:13:37;;;;;;;8.17;3.63;;;19.50;62.00;;;;;;6222365;23;20410;-88
2022/06/12 06:16:03;;;;;;;11.90;4.83;;;20.00;61.70;;;;;;6248829;23;20400;-89
2022/06/12 06:18:29;;;;;;;8.53;3.77;;;20.90;58.70;;;;;;6220148;23;20427;-88
2022/06/12 06:20:55;;;;;;;12.27;5.23;;;21.50;56.50;;;;;;6222783;23;20454;-89
2022/06/12 06:23:21;;;;;;;12.30;3.80;;;21.50;55.80;;;;;;6223866;23;20383;-89
2022/06/12 06:25:55;;;;;;;10.10;4.37;;;22.20;54.40;;;;;;6221327;23;20383;-89
2022/06/12 06:28:21;;;;;;;11.47;5.27;;;22.60;52.80;;;;;;6247600;23;20168;-88
2022/06/12 06:30:47;;;;;;;11.10;5.37;;;22.40;53.80;;;;;;6220650;23;20411;-88
2022/06/12 06:33:13;;;;;;;10.20;4.57;;;23.00;52.40;;;;;;6247820;23;20164;-88
2022/06/12 06:35:39;;;;;;;13.90;6.30;;;23.70;50.70;;;;;;6247744;23;20245;-89
2022/06/12 06:38:06;;;;;;;14.97;5.80;;;23.50;50.30;;;;;;6219718;23;20380;-88
2022/06/12 06:40:32;;;;;;;13.37;5.57;;;23.20;50.70;;;;;;6220681;23;20404;-88
2022/06/12 06:42:58;;;;;;;17.23;5.83;;;22.90;51.70;;;;;;6220560;23;20889;-88
2022/06/12 06:48:17;;;;;;;14.40;4.90;;;23.90;50.90;;;;;;6247426;23;20476;-88
2022/06/12 06:50:43;;;;;;;14.27;6.67;;;23.70;50.50;;;;;;6246817;22;20390;-89
2022/06/12 06:53:11;;;;;;;11.40;5.20;;;23.80;49.60;;;;;;6247420;23;20454;-88
2022/06/12 06:55:38;;;;;;;15.70;5.80;;;23.60;50.40;;;;;;6247892;23;20488;-89
2022/06/12 06:58:15;;;;;;;16.63;5.97;;;23.50;50.70;;;;;;6222901;23;20373;-88
2022/06/12 07:00:42;;;;;;;16.23;4.80;;;24.00;49.60;;;;;;6224468;23;20730;-89
2022/06/12 07:03:08;;;;;;;12.10;5.53;;;24.40;48.30;;;;;;6223760;23;20446;-88
2022/06/12 07:05:37;;;;;;;14.23;6.20;;;24.20;49.40;;;;;;6222553;23;20860;-89
2022/06/12 07:08:03;;;;;;;18.93;6.27;;;23.90;49.70;;;;;;6220225;23;20374;-89
2022/06/12 07:10:32;;;;;;;16.47;5.70;;;23.80;50.30;;;;;;6220434;23;20492;-89
2022/06/12 07:12:59;;;;;;;17.03;6.40;;;23.90;50.30;;;;;;6221301;23;20723;-88
2022/06/12 07:15:26;;;;;;;16.50;6.20;;;23.50;51.00;;;;;;6220294;23;20721;-89
2022/06/12 07:17:53;;;;;;;16.73;5.53;;;23.20;51.90;;;;;;6220227;23;20377;-89
2022/06/12 07:20:23;;;;;;;14.87;5.60;;;22.90;52.30;;;;;;6249995;22;20513;-88
2022/06/12 07:22:49;;;;;;;14.73;5.73;;;22.60;53.30;;;;;;6222468;23;20729;-88
2022/06/12 07:25:18;;;;;;;16.63;5.80;;;22.70;54.00;;;;;;6248463;23;20368;-88
2022/06/12 07:27:44;;;;;;;16.67;6.00;;;23.10;53.40;;;;;;6221646;23;20376;-89
2022/06/12 07:30:13;;;;;;;10.43;5.30;;;23.10;53.20;;;;;;6249493;22;20402;-88
2022/06/12 07:32:39;;;;;;;13.93;5.43;;;23.00;53.10;;;;;;6198214;23;20387;-87
2022/06/12 07:35:05;;;;;;;18.07;5.40;;;22.60;53.30;;;;;;6249520;23;20884;-87
2022/06/12 07:37:33;;;;;;;13.87;6.53;;;22.00;54.00;;;;;;6249009;23;20467;-87
2022/06/12 07:40:00;;;;;;;14.83;4.63;;;21.90;54.80;;;;;;6222298;23;20434;-88
2022/06/12 07:42:26;;;;;;;15.03;4.90;;;21.80;54.90;;;;;;6249794;23;20850;-88
2022/06/12 07:44:52;;;;;;;14.97;6.37;;;22.00;54.70;;;;;;6222611;23;20375;-89
2022/06/12 07:47:19;;;;;;;10.23;4.73;;;21.90;55.10;;;;;;6220777;23;20401;-89
2022/06/12 07:49:45;;;;;;;13.30;5.50;;;22.30;54.20;;;;;;6249456;22;20964;-88
2022/06/12 07:52:12;;;;;;;13.80;5.43;;;22.10;54.80;;;;;;6221235;23;20390;-87
2022/06/12 07:54:38;;;;;;;15.27;5.50;;;21.80;54.90;;;;;;6220924;23;20156;-87
2022/06/12 07:57:05;;;;;;;11.73;5.50;;;21.90;56.20;;;;;;6221740;23;20697;-87
2022/06/12 07:59:31;;;;;;;10.70;5.60;;;21.90;55.80;;;;;;6222279;22;20485;-87
2022/06/12 08:01:57;;;;;;;11.43;4.80;;;22.00;56.00;;;;;;6224070;23;20383;-87
2022/06/12 08:04:23;;;;;;;14.20;6.07;;;21.60;56.00;;;;;;6222357;23;20387;-88
2022/06/12 08:06:50;;;;;;;13.70;4.70;;;21.50;55.80;;;;;;6224371;23;20748;-88
2022/06/12 08:09:16;;;;;;;13.63;3.73;;;21.60;56.00;;;;;;6221638;22;20466;-88
2022/06/12 08:11:45;;;;;;;13.53;4.60;;;21.40;54.50;;;;;;6221784;23;20600;-87
2022/06/12 08:14:12;;;;;;;14.13;4.23;;;21.30;55.00;;;;;;6250399;23;20391;-87
2022/06/12 08:16:38;;;;;;;13.73;5.17;;;21.50;55.70;;;;;;6240516;23;20405;-88
2022/06/12 08:20:24;;;;;;;19.20;5.97;;;21.50;55.10;;;;;;6230048;23;20418;-88
2022/06/12 08:21:50;;;;;;;14.70;4.60;;;21.60;55.40;;;;;;6250164;23;20364;-88
2022/06/12 08:24:17;;;;;;;12.27;5.40;;;21.70;55.40;;;;;;6223576;23;20383;-87
2022/06/12 08:26:43;;;;;;;13.90;4.70;;;21.80;55.30;;;;;;6223454;23;20372;-88
2022/06/12 08:29:12;;;;;;;11.80;4.60;;;21.80;54.80;;;;;;6200900;23;20400;-89
2022/06/12 08:31:46;;;;;;;7.03;3.40;;;21.60;53.60;;;;;;6250549;23;20151;-87
2022/06/12 08:34:22;;;;;;;7.03;3.23;;;21.50;51.70;;;;;;6248910;23;20364;-87
2022/06/12 08:36:54;;;;;;;10.07;4.10;;;21.70;52.60;;;;;;6219272;23;20411;-88
2022/06/12 08:39:20;;;;;;;14.40;3.87;;;21.90;53.10;;;;;;6220032;22;20416;-87
2022/06/12 08:42:15;;;;;;;15.63;3.50;;;21.80;52.50;;;;;;6220846;23;20385;-88
2022/06/12 08:44:54;;;;;;;8.37;2.93;;;21.80;51.40;;;;;;6221530;23;20395;-87
2022/06/12 08:47:31;;;;;;;10.13;4.30;;;22.00;50.70;;;;;;6247553;23;20359;-88
2022/06/12 08:50:20;;;;;;;15.07;4.37;;;22.00;51.20;;;;;;6220769;23;20407;-89
2022/06/12 08:52:49;;;;;;;13.23;4.07;;;21.80;51.80;;;;;;6222107;23;20384;-88
2022/06/12 08:55:39;;;;;;;12.83;4.90;;;21.70;53.30;;;;;;6225289;23;20650;-87
2022/06/12 08:58:21;;;;;;;13.57;4.30;;;21.80;53.80;;;;;;6230201;23;20498;-88
2022/06/12 09:00:47;;;;;;;14.03;5.50;;;21.80;53.90;;;;;;6232677;23;20401;-88
2022/06/12 09:03:20;;;;;;;9.40;4.80;;;21.90;53.50;;;;;;6259335;23;20371;-88
2022/06/12 09:06:18;;;;;;;12.47;4.30;;;22.00;53.40;;;;;;6219030;23;20376;-87
2022/06/12 09:09:10;;;;;;;13.40;4.80;;;22.30;52.70;;;;;;6219516;23;20376;-88
2022/06/12 09:11:50;;;;;;;11.40;4.70;;;22.70;50.50;;;;;;6218896;23;20921;-88
2022/06/12 09:14:50;;;;;;;14.23;4.87;;;22.20;51.60;;;;;;6219620;23;20407;-88
2022/06/12 09:17:35;;;;;;;15.53;4.90;;;21.90;52.60;;;;;;6219940;23;20408;-88
2022/06/12 09:20:27;;;;;;;9.17;4.23;;;22.40;52.50;;;;;;6220678;23;20427;-87
2022/06/12 09:23:01;;;;;;;14.67;4.77;;;22.40;52.50;;;;;;6247182;23;20363;-87
2022/06/12 09:25:46;;;;;;;9.10;4.63;;;22.80;51.50;;;;;;6219611;23;20386;-87
2022/06/12 09:28:33;;;;;;;13.47;4.90;;;22.70;51.90;;;;;;6219610;23;20383;-88
2022/06/12 09:31:02;;;;;;;10.63;4.20;;;22.50;51.90;;;;;;6246480;22;20383;-88
2022/06/12 09:33:53;;;;;;;10.20;4.40;;;22.40;52.50;;;;;;6218818;23;20380;-87
2022/06/12 09:36:44;;;;;;;8.53;4.43;;;22.40;52.70;;;;;;6219297;23;20379;-88
2022/06/12 09:39:52;;;;;;;9.73;5.10;;;22.70;52.40;;;;;;6219010;23;20418;-87
2022/06/12 09:42:17;;;;;;;7.13;4.23;;;22.70;51.50;;;;;;6246944;23;20839;-88
2022/06/12 09:44:49;;;;;;;10.63;4.50;;;22.70;51.10;;;;;;6221462;23;20469;-88
2022/06/12 09:47:38;;;;;;;13.13;3.80;;;22.80;50.00;;;;;;6221600;23;20149;-88
2022/06/12 09:50:09;;;;;;;10.70;4.90;;;22.90;50.80;;;;;;6219242;23;20413;-88
2022/06/12 09:52:38;;;;;;;8.03;4.07;;;22.90;51.40;;;;;;6219609;23;20539;-88
2022/06/12 09:55:14;;;;;;;9.57;4.97;;;22.90;51.20;;;;;;6219020;23;20390;-89
2022/06/12 09:57:49;;;;;;;13.30;5.83;;;22.80;51.30;;;;;;6219578;23;20398;-88
2022/06/12 10:00:23;;;;;;;9.37;5.10;;;22.60;51.70;;;;;;6246891;22;20426;-89
2022/06/12 10:03:17;;;;;;;8.53;5.10;;;23.00;50.10;;;;;;6221193;23;20387;-89
2022/06/12 10:06:13;;;;;;;12.00;5.47;;;22.80;50.60;;;;;;6247740;23;20754;-89
2022/06/12 10:09:01;;;;;;;11.33;5.53;;;22.70;51.30;;;;;;6246244;23;20395;-87
2022/06/12 10:11:34;;;;;;;9.83;5.40;;;22.50;51.70;;;;;;6225567;23;20434;-87
2022/06/12 10:14:15;;;;;;;14.03;5.60;;;22.80;51.30;;;;;;6235425;23;20406;-87
2022/06/12 10:16:44;;;;;;;14.43;5.87;;;23.00;50.30;;;;;;6235600;23;20405;-88
2022/06/12 10:19:35;;;;;;;10.80;5.27;;;22.70;51.10;;;;;;6225019;23;20473;-88
2022/06/12 10:22:11;;;;;;;13.17;6.13;;;22.20;52.20;;;;;;6246784;23;20365;-88
2022/06/12 10:24:36;;;;;;;11.73;4.63;;;22.00;53.10;;;;;;6219871;23;20364;-88
2022/06/12 10:27:22;;;;;;;11.63;4.77;;;21.90;53.90;;;;;;6220676;23;20926;-88
2022/06/12 10:29:52;;;;;;;9.57;4.53;;;21.70;51.90;;;;;;6220841;23;20230;-88
2022/06/12 10:32:21;;;;;;;17.60;5.50;;;21.70;52.30;;;;;;6198762;23;20378;-90
2022/06/12 10:34:47;;;;;;;17.30;5.57;;;21.50;52.00;;;;;;6249830;23;20381;-89
2022/06/12 10:37:20;;;;;;;10.43;4.83;;;21.40;52.20;;;;;;6227829;23;20589;-90
2022/06/12 10:40:03;;;;;;;12.23;4.83;;;21.50;52.50;;;;;;6227147;23;20573;-89
2022/06/12 10:42:35;;;;;;;6.47;4.20;;;21.80;51.70;;;;;;6227511;23;20458;-90
2022/06/12 10:45:01;;;;;;;10.10;5.33;;;22.00;51.80;;;;;;6227123;23;20368;-89
2022/06/12 10:47:30;;;;;;;15.47;5.57;;;22.10;51.00;;;;;;6227624;23;20390;-89
2022/06/12 10:50:20;;;;;;;11.50;5.00;;;22.40;51.30;;;;;;6221860;23;20472;-90
2022/06/12 10:52:51;;;;;;;8.60;5.07;;;22.60;49.90;;;;;;6220758;23;20380;-90
2022/06/12 10:55:31;;;;;;;14.57;5.90;;;22.60;49.80;;;;;;6220136;23;20393;-90
2022/06/12 10:58:12;;;;;;;8.87;6.00;;;22.80;49.60;;;;;;6220813;23;20382;-89
2022/06/12 11:00:41;;;;;;;13.23;5.67;;;22.70;48.70;;;;;;6220310;23;20421;-90
2022/06/12 11:03:07;;;;;;;15.93;6.20;;;22.80;48.50;;;;;;6220166;23;20375;-90
2022/06/12 11:05:48;;;;;;;9.57;5.47;;;22.90;47.70;;;;;;6219628;23;20446;-90
2022/06/12 11:08:28;;;;;;;8.30;3.33;;;22.60;48.30;;;;;;6219161;23;20140;-90
2022/06/12 11:11:15;;;;;;;14.60;3.73;;;22.80;48.10;;;;;;6246834;22;20880;-89
2022/06/12 11:13:51;;;;;;;7.23;2.60;;;22.80;47.20;;;;;;6247914;23;20466;-89
2022/06/12 11:16:25;;;;;;;5.77;3.00;;;23.00;47.30;;;;;;6246826;23;20367;-89
2022/06/12 11:19:01;;;;;;;7.63;3.10;;;23.00;47.50;;;;;;6219934;23;20919;-90
2022/06/12 11:21:27;;;;;;;7.50;3.63;;;23.10;46.70;;;;;;6247302;22;20387;-90
2022/06/12 11:24:10;;;;;;;8.00;3.00;;;23.30;46.50;;;;;;6247168;23;20845;-90
2022/06/12 11:26:57;;;;;;;6.17;2.80;;;23.40;46.10;;;;;;6219315;23;20224;-90
2022/06/12 11:29:41;;;;;;;7.67;3.67;;;23.50;46.20;;;;;;6221728;22;20386;-89
2022/06/12 11:32:35;;;;;;;10.70;3.70;;;23.30;44.80;;;;;;6232267;23;20371;-90
2022/06/12 11:35:01;;;;;;;6.87;3.30;;;23.30;46.00;;;;;;6243955;23;20398;-89
2022/06/12 11:37:45;;;;;;;8.00;4.00;;;23.20;47.20;;;;;;6220411;23;20387;-89
2022/06/12 11:40:33;;;;;;;8.43;3.60;;;23.30;46.60;;;;;;6219199;23;20222;-89
2022/06/12 11:43:23;;;;;;;7.13;3.27;;;23.30;46.00;;;;;;6217943;23;20882;-89
2022/06/12 11:46:01;;;;;;;8.27;3.60;;;23.30;45.90;;;;;;6220089;23;20411;-89
2022/06/12 11:52:25;;;;;;;10.03;3.97;;;22.80;45.80;;;;;;6246345;23;20886;-89
2022/06/12 11:55:16;;;;;;;7.47;2.97;;;22.60;46.20;;;;;;6221168;23;20445;-89
2022/06/12 11:58:06;;;;;;;6.07;2.43;;;22.70;46.30;;;;;;6250041;23;20367;-88
2022/06/12 12:00:35;;;;;;;7.73;2.80;;;23.10;45.20;;;;;;6247937;22;20466;-90
2022/06/12 12:03:11;;;;;;;4.60;2.60;;;23.30;43.10;;;;;;6220194;23;20398;-89
2022/06/12 12:06:05;;;;;;;7.70;2.70;;;23.40;43.00;;;;;;6222716;23;20379;-89
2022/06/12 12:08:48;;;;;;;6.70;3.47;;;23.40;43.40;;;;;;6221538;23;20388;-89
2022/06/12 12:11:29;;;;;;;8.97;3.17;;;24.00;43.20;;;;;;6251360;22;20407;-89
2022/06/12 12:13:59;;;;;;;5.60;2.33;;;23.60;42.70;;;;;;6228877;23;20417;-89
2022/06/12 12:16:31;;;;;;;7.00;3.10;;;23.60;43.50;;;;;;6257323;23;20451;-89
2022/06/12 12:19:11;;;;;;;6.00;2.93;;;23.70;43.40;;;;;;6259035;23;20929;-89
2022/06/12 12:21:56;;;;;;;6.50;2.70;;;23.70;42.20;;;;;;6252808;23;20566;-89
2022/06/12 12:24:29;;;;;;;6.03;2.20;;;23.50;41.70;;;;;;6219451;23;20371;-89
2022/06/12 12:26:59;;;;;;;5.90;3.30;;;23.60;42.30;;;;;;6246911;23;20356;-88
2022/06/12 12:29:28;;;;;;;12.40;3.20;;;24.00;42.30;;;;;;6220647;22;20371;-89
2022/06/12 12:31:55;;;;;;;8.33;2.83;;;23.60;41.30;;;;;;6245973;23;20367;-89
2022/06/12 12:34:25;;;;;;;6.87;2.03;;;23.30;40.90;;;;;;6219756;23;20398;-89
2022/06/12 12:42:37;;;;;;;4.07;2.47;;;23.40;41.90;;;;;;6247018;23;20813;-89
2022/06/12 12:45:15;;;;;;;7.30;2.57;;;23.30;42.70;;;;;;6219472;23;20723;-89
2022/06/12 12:47:41;;;;;;;11.33;3.63;;;23.40;42.40;;;;;;6224455;23;20662;-88
2022/06/12 12:50:16;;;;;;;11.33;2.83;;;23.50;42.30;;;;;;6226531;23;20418;-89
2022/06/12 12:52:48;;;;;;;11.10;3.20;;;23.40;43.00;;;;;;6253511;23;20400;-89
2022/06/12 12:55:33;;;;;;;13.40;4.30;;;23.20;43.00;;;;;;6226412;23;20410;-88
2022/06/12 12:58:12;;;;;;;6.73;2.70;;;23.00;43.00;;;;;;6228758;23;20388;-89
2022/06/12 13:00:38;;;;;;;5.27;3.13;;;23.10;44.10;;;;;;6248056;22;20407;-89
2022/06/12 13:03:07;;;;;;;4.23;2.87;;;22.80;44.60;;;;;;6220073;23;20390;-90
2022/06/12 13:05:47;;;;;;;10.77;3.23;;;22.60;45.50;;;;;;6219250;23;20160;-90
2022/06/12 13:08:34;;;;;;;8.63;3.33;;;22.60;46.20;;;;;;6248989;23;20816;-89
2022/06/12 13:11:18;;;;;;;4.50;2.40;;;22.60;45.40;;;;;;6247222;22;20383;-89
2022/06/12 13:13:53;;;;;;;5.10;2.37;;;22.70;46.60;;;;;;6222141;23;20442;-89
2022/06/12 13:16:30;;;;;;;7.47;2.80;;;22.70;46.70;;;;;;6219351;23;20397;-89
2022/06/12 13:19:25;;;;;;;6.50;2.90;;;22.60;46.90;;;;;;6218084;23;20996;-90
2022/06/12 13:22:16;;;;;;;8.23;2.83;;;22.50;47.20;;;;;;6198081;23;20470;-89
2022/06/12 13:25:12;;;;;;;7.30;2.40;;;22.50;46.80;;;;;;6219753;23;20388;-89
2022/06/12 13:28:05;;;;;;;4.63;2.87;;;22.40;47.30;;;;;;6243315;22;20407;-90
2022/06/12 13:30:40;;;;;;;7.17;3.07;;;22.50;47.90;;;;;;6215970;23;20410;-90
2022/06/12 13:33:15;;;;;;;9.07;3.17;;;22.70;46.40;;;;;;6218880;23;20375;-89
2022/06/12 13:35:55;;;;;;;11.03;3.50;;;22.50;46.40;;;;;;6218454;23;20375;-90
2022/06/12 13:38:45;;;;;;;12.23;2.70;;;22.20;47.10;;;;;;6245204;23;20446;-89
2022/06/12 13:41:42;;;;;;;5.30;2.70;;;22.20;47.50;;;;;;6192499;23;20928;-89